sensor_id;sensor_type;location;lat;lon;timestamp;pressure;altitude;pressure_sealevel;temperature;humidity
26865;BME280;40618;51.166;10.322;2023-12-28T00:01:28;97005.00;;;4.86;88.37
26865;BME280;40618;51.166;10.322;2023-12-28T00:03:53;97017.78;;;4.89;88.10
26865;BME280;40618;51.166;10.322;2023-12-28T00:06:19;97015.09;;;4.98;87.92
26865;BME280;40618;51.166;10.322;2023-12-28T00:08:44;97001.44;;;4.96;87.89
26865;BME280;40618;51.166;10.322;2023-12-28T00:11:11;96997.19;;;4.95;87.37
26865;BME280;40618;51.166;10.322;2023-12-28T00:13:36;97006.47;;;5.02;87.58
26865;BME280;40618;51.166;10.322;2023-12-28T00:16:02;97007.31;;;5.03;87.20
26865;BME280;40618;51.166;10.322;2023-12-28T00:18:27;97005.66;;;5.00;87.15
26865;BME280;40618;51.166;10.322;2023-12-28T00:20:53;97008.19;;;5.02;87.19
26865;BME280;40618;51.166;10.322;2023-12-28T00:23:19;97013.25;;;5.06;87.09
26865;BME280;40618;51.166;10.322;2023-12-28T00:25:47;97008.03;;;5.13;87.41
26865;BME280;40618;51.166;10.322;2023-12-28T00:28:12;97005.44;;;5.14;87.02
26865;BME280;40618;51.166;10.322;2023-12-28T00:30:38;97017.31;;;5.21;86.57
26865;BME280;40618;51.166;10.322;2023-12-28T00:33:03;97010.34;;;5.28;86.48
26865;BME280;40618;51.166;10.322;2023-12-28T00:35:29;97024.03;;;5.29;86.50
26865;BME280;40618;51.166;10.322;2023-12-28T00:37:55;97024.84;;;5.32;86.00
26865;BME280;40618;51.166;10.322;2023-12-28T00:40:20;97030.03;;;5.29;86.37
26865;BME280;40618;51.166;10.322;2023-12-28T00:42:47;97022.34;;;5.28;85.85
26865;BME280;40618;51.166;10.322;2023-12-28T00:45:13;97018.84;;;5.33;86.07
26865;BME280;40618;51.166;10.322;2023-12-28T00:47:39;97037.59;;;5.37;86.19
26865;BME280;40618;51.166;10.322;2023-12-28T00:50:05;97021.28;;;5.39;86.10
26865;BME280;40618;51.166;10.322;2023-12-28T00:52:31;97037.56;;;5.38;85.82
26865;BME280;40618;51.166;10.322;2023-12-28T00:54:56;97047.81;;;5.40;85.81
26865;BME280;40618;51.166;10.322;2023-12-28T00:57:22;97055.53;;;5.40;85.62
26865;BME280;40618;51.166;10.322;2023-12-28T00:59:47;97051.19;;;5.43;85.73
26865;BME280;40618;51.166;10.322;2023-12-28T01:02:13;97052.75;;;5.52;85.21
26865;BME280;40618;51.166;10.322;2023-12-28T01:04:38;97055.19;;;5.60;85.17
26865;BME280;40618;51.166;10.322;2023-12-28T01:07:04;97047.38;;;5.66;85.50
26865;BME280;40618;51.166;10.322;2023-12-28T01:09:31;97053.34;;;5.68;85.03
26865;BME280;40618;51.166;10.322;2023-12-28T01:11:59;97044.75;;;5.69;84.91
26865;BME280;40618;51.166;10.322;2023-12-28T01:14:25;97049.88;;;5.71;84.94
26865;BME280;40618;51.166;10.322;2023-12-28T01:16:50;97056.63;;;5.76;84.66
26865;BME280;40618;51.166;10.322;2023-12-28T01:19:16;97051.44;;;5.80;84.99
26865;BME280;40618;51.166;10.322;2023-12-28T01:21:41;97037.75;;;5.78;84.80
26865;BME280;40618;51.166;10.322;2023-12-28T01:24:07;97054.09;;;5.73;84.93
26865;BME280;40618;51.166;10.322;2023-12-28T01:26:32;97049.84;;;5.72;84.87
26865;BME280;40618;51.166;10.322;2023-12-28T01:28:59;97057.56;;;5.71;84.66
26865;BME280;40618;51.166;10.322;2023-12-28T01:31:28;97055.06;;;5.68;84.74
26865;BME280;40618;51.166;10.322;2023-12-28T01:33:54;97057.69;;;5.65;84.76
26865;BME280;40618;51.166;10.322;2023-12-28T01:36:20;97071.44;;;5.62;84.41
26865;BME280;40618;51.166;10.322;2023-12-28T01:38:47;97073.19;;;5.58;84.25
26865;BME280;40618;51.166;10.322;2023-12-28T01:41:13;97082.63;;;5.58;84.65
26865;BME280;40618;51.166;10.322;2023-12-28T01:43:43;97057.69;;;5.65;84.66
26865;BME280;40618;51.166;10.322;2023-12-28T01:46:16;97053.19;;;5.78;84.81
26865;BME280;40618;51.166;10.322;2023-12-28T01:48:44;97069.38;;;5.83;84.16
26865;BME280;40618;51.166;10.322;2023-12-28T01:51:14;97062.56;;;5.80;84.38
26865;BME280;40618;51.166;10.322;2023-12-28T01:53:41;97060.09;;;5.75;84.26
26865;BME280;40618;51.166;10.322;2023-12-28T01:56:07;97059.22;;;5.75;84.42
26865;BME280;40618;51.166;10.322;2023-12-28T01:58:35;97068.63;;;5.76;84.04
26865;BME280;40618;51.166;10.322;2023-12-28T02:01:02;97077.13;;;5.80;84.10
26865;BME280;40618;51.166;10.322;2023-12-28T02:03:28;97097.69;;;5.78;84.15
26865;BME280;40618;51.166;10.322;2023-12-28T02:05:54;97110.56;;;5.76;84.06
26865;BME280;40618;51.166;10.322;2023-12-28T02:08:20;97100.38;;;5.72;84.45
26865;BME280;40618;51.166;10.322;2023-12-28T02:10:46;97101.28;;;5.69;84.24
26865;BME280;40618;51.166;10.322;2023-12-28T02:13:13;97111.59;;;5.66;84.57
26865;BME280;40618;51.166;10.322;2023-12-28T02:15:38;97104.72;;;5.68;84.19
26865;BME280;40618;51.166;10.322;2023-12-28T02:18:19;97110.66;;;5.72;84.56
26865;BME280;40618;51.166;10.322;2023-12-28T02:20:48;97113.19;;;5.73;84.83
26865;BME280;40618;51.166;10.322;2023-12-28T02:23:15;97103.75;;;5.74;84.34
26865;BME280;40618;51.166;10.322;2023-12-28T02:25:41;97120.03;;;5.74;84.50
26865;BME280;40618;51.166;10.322;2023-12-28T02:28:07;97118.28;;;5.76;83.93
26865;BME280;40618;51.166;10.322;2023-12-28T02:30:33;97127.72;;;5.76;84.27
26865;BME280;40618;51.166;10.322;2023-12-28T02:33:15;97120.06;;;5.73;84.40
26865;BME280;40618;51.166;10.322;2023-12-28T02:35:52;97125.19;;;5.74;84.20
26865;BME280;40618;51.166;10.322;2023-12-28T02:38:23;97107.19;;;5.74;83.93
26865;BME280;40618;51.166;10.322;2023-12-28T02:40:50;97107.22;;;5.73;84.29
26865;BME280;40618;51.166;10.322;2023-12-28T02:43:17;97108.06;;;5.73;84.51
26865;BME280;40618;51.166;10.322;2023-12-28T02:45:42;97102.97;;;5.70;84.17
26865;BME280;40618;51.166;10.322;2023-12-28T02:48:08;97097.84;;;5.70;84.12
26865;BME280;40618;51.166;10.322;2023-12-28T02:50:34;97088.44;;;5.69;84.61
26865;BME280;40618;51.166;10.322;2023-12-28T02:53:01;97099.47;;;5.74;84.18
26865;BME280;40618;51.166;10.322;2023-12-28T02:55:27;97096.03;;;5.77;84.51
26865;BME280;40618;51.166;10.322;2023-12-28T02:57:55;97096.03;;;5.77;84.25
26865;BME280;40618;51.166;10.322;2023-12-28T03:00:24;97094.28;;;5.78;84.55
26865;BME280;40618;51.166;10.322;2023-12-28T03:02:50;97107.97;;;5.78;84.20
26865;BME280;40618;51.166;10.322;2023-12-28T03:05:16;97099.38;;;5.81;84.38
26865;BME280;40618;51.166;10.322;2023-12-28T03:07:42;97113.94;;;5.80;84.80
26865;BME280;40618;51.166;10.322;2023-12-28T03:10:08;97103.59;;;5.83;84.55
26865;BME280;40618;51.166;10.322;2023-12-28T03:12:35;97077.09;;;5.83;84.29
26865;BME280;40618;51.166;10.322;2023-12-28T03:15:00;97078.78;;;5.84;84.28
26865;BME280;40618;51.166;10.322;2023-12-28T03:17:26;97086.47;;;5.85;84.38
26865;BME280;40618;51.166;10.322;2023-12-28T03:19:51;97074.44;;;5.86;84.40
26865;BME280;40618;51.166;10.322;2023-12-28T03:22:17;97086.47;;;5.85;84.65
26865;BME280;40618;51.166;10.322;2023-12-28T03:24:43;97085.56;;;5.88;84.66
26865;BME280;40618;51.166;10.322;2023-12-28T03:27:09;97086.41;;;5.88;84.48
26865;BME280;40618;51.166;10.322;2023-12-28T03:29:34;97069.19;;;5.93;84.40
26865;BME280;40618;51.166;10.322;2023-12-28T03:32:00;97082.00;;;5.95;84.78
26865;BME280;40618;51.166;10.322;2023-12-28T03:34:26;97083.72;;;5.96;84.91
26865;BME280;40618;51.166;10.322;2023-12-28T03:36:54;97086.28;;;5.96;84.32
26865;BME280;40618;51.166;10.322;2023-12-28T03:39:20;97103.38;;;5.97;84.74
26865;BME280;40618;51.166;10.322;2023-12-28T03:41:47;97111.13;;;5.99;84.75
26865;BME280;40618;51.166;10.322;2023-12-28T03:44:13;97097.38;;;6.00;84.96
26865;BME280;40618;51.166;10.322;2023-12-28T03:46:38;97085.41;;;5.99;84.16
26865;BME280;40618;51.166;10.322;2023-12-28T03:49:04;97087.06;;;6.01;84.45
26865;BME280;40618;51.166;10.322;2023-12-28T03:51:30;97093.09;;;6.00;84.81
26865;BME280;40618;51.166;10.322;2023-12-28T03:53:55;97095.59;;;6.03;84.50
26865;BME280;40618;51.166;10.322;2023-12-28T03:56:25;97099.91;;;6.03;84.45
26865;BME280;40618;51.166;10.322;2023-12-28T03:58:52;97096.47;;;6.02;84.73
26865;BME280;40618;51.166;10.322;2023-12-28T04:01:19;97107.63;;;6.03;84.84
26865;BME280;40618;51.166;10.322;2023-12-28T04:03:46;97125.53;;;6.06;84.60
26865;BME280;40618;51.166;10.322;2023-12-28T04:06:13;97123.78;;;6.08;85.22
26865;BME280;40618;51.166;10.322;2023-12-28T04:08:40;97116.97;;;6.07;84.57
26865;BME280;40618;51.166;10.322;2023-12-28T04:11:06;97122.09;;;6.07;84.83
26865;BME280;40618;51.166;10.322;2023-12-28T04:13:32;97092.91;;;6.09;85.56
26865;BME280;40618;51.166;10.322;2023-12-28T04:15:57;97114.38;;;6.08;84.79
26865;BME280;40618;51.166;10.322;2023-12-28T04:18:23;97110.97;;;6.06;84.81
26865;BME280;40618;51.166;10.322;2023-12-28T04:20:49;97134.94;;;6.08;85.26
26865;BME280;40618;51.166;10.322;2023-12-28T04:23:15;97142.59;;;6.10;85.20
26865;BME280;40618;51.166;10.322;2023-12-28T04:25:41;97136.56;;;6.13;85.22
26865;BME280;40618;51.166;10.322;2023-12-28T04:28:07;97137.34;;;6.16;84.87
26865;BME280;40618;51.166;10.322;2023-12-28T04:30:33;97135.63;;;6.17;85.59
26865;BME280;40618;51.166;10.322;2023-12-28T04:33:00;97134.75;;;6.19;85.21
26865;BME280;40618;51.166;10.322;2023-12-28T04:35:26;97133.84;;;6.20;85.33
26865;BME280;40618;51.166;10.322;2023-12-28T04:37:52;97148.44;;;6.20;85.99
26865;BME280;40618;51.166;10.322;2023-12-28T04:40:17;97149.25;;;6.22;85.31
26865;BME280;40618;51.166;10.322;2023-12-28T04:42:43;97141.53;;;6.23;85.48
26865;BME280;40618;51.166;10.322;2023-12-28T04:45:09;97129.47;;;6.25;85.70
26865;BME280;40618;51.166;10.322;2023-12-28T04:47:36;97132.88;;;6.26;85.52
26865;BME280;40618;51.166;10.322;2023-12-28T04:50:05;97125.16;;;6.26;86.26
26865;BME280;40618;51.166;10.322;2023-12-28T04:52:32;97147.47;;;6.25;86.43
26865;BME280;40618;51.166;10.322;2023-12-28T04:54:58;97147.47;;;6.25;86.10
26865;BME280;40618;51.166;10.322;2023-12-28T04:57:24;97145.75;;;6.26;86.32
26865;BME280;40618;51.166;10.322;2023-12-28T04:59:51;97137.19;;;6.25;86.42
26865;BME280;40618;51.166;10.322;2023-12-28T05:02:17;97138.03;;;6.26;86.07
26865;BME280;40618;51.166;10.322;2023-12-28T05:04:42;97129.41;;;6.29;86.27
26865;BME280;40618;51.166;10.322;2023-12-28T05:07:08;97144.88;;;6.27;86.04
26865;BME280;40618;51.166;10.322;2023-12-28T05:09:34;97139.69;;;6.29;86.30
26865;BME280;40618;51.166;10.322;2023-12-28T05:11:59;97148.31;;;6.28;86.31
26865;BME280;40618;51.166;10.322;2023-12-28T05:14:25;97139.72;;;6.27;86.70
26865;BME280;40618;51.166;10.322;2023-12-28T05:16:51;97144.88;;;6.27;86.76
26865;BME280;40618;51.166;10.322;2023-12-28T05:19:16;97140.56;;;6.29;86.73
26865;BME280;40618;51.166;10.322;2023-12-28T05:21:42;97130.31;;;6.28;86.56
26865;BME280;40618;51.166;10.322;2023-12-28T05:24:07;97120.84;;;6.28;86.18
26865;BME280;40618;51.166;10.322;2023-12-28T05:26:33;97125.16;;;6.26;86.34
26865;BME280;40618;51.166;10.322;2023-12-28T05:28:59;97129.44;;;6.27;86.15
26865;BME280;40618;51.166;10.322;2023-12-28T05:31:25;97139.75;;;6.25;86.55
26865;BME280;40618;51.166;10.322;2023-12-28T05:33:51;97147.50;;;6.24;86.86
26865;BME280;40618;51.166;10.322;2023-12-28T05:36:17;97139.78;;;6.24;86.60
26865;BME280;40618;51.166;10.322;2023-12-28T05:38:43;97137.22;;;6.24;86.48
26865;BME280;40618;51.166;10.322;2023-12-28T05:41:11;97131.25;;;6.22;86.33
26865;BME280;40618;51.166;10.322;2023-12-28T05:43:37;97133.00;;;6.20;87.15
26865;BME280;40618;51.166;10.322;2023-12-28T05:46:04;97130.47;;;6.18;86.45
26865;BME280;40618;51.166;10.322;2023-12-28T05:48:30;97144.19;;;6.17;86.71
26865;BME280;40618;51.166;10.322;2023-12-28T05:50:57;97142.50;;;6.16;86.45
26865;BME280;40618;51.166;10.322;2023-12-28T05:53:24;97133.06;;;6.17;86.97
26865;BME280;40618;51.166;10.322;2023-12-28T05:55:50;97142.53;;;6.15;86.75
26865;BME280;40618;51.166;10.322;2023-12-28T05:58:15;97139.16;;;6.11;86.43
26865;BME280;40618;51.166;10.322;2023-12-28T06:00:41;97152.03;;;6.09;86.85
26865;BME280;40618;51.166;10.322;2023-12-28T06:03:08;97151.19;;;6.09;86.91
26865;BME280;40618;51.166;10.322;2023-12-28T06:05:33;97160.66;;;6.07;86.98
26865;BME280;40618;51.166;10.322;2023-12-28T06:07:59;97155.53;;;6.07;86.85
26865;BME280;40618;51.166;10.322;2023-12-28T06:10:24;97164.13;;;6.04;86.90
26865;BME280;40618;51.166;10.322;2023-12-28T06:12:50;97168.44;;;6.02;86.76
26865;BME280;40618;51.166;10.322;2023-12-28T06:15:16;97162.50;;;5.99;87.04
26865;BME280;40618;51.166;10.322;2023-12-28T06:17:41;97166.81;;;5.95;86.53
26865;BME280;40618;51.166;10.322;2023-12-28T06:20:08;97157.44;;;5.92;86.98
26865;BME280;40618;51.166;10.322;2023-12-28T06:22:37;97166.91;;;5.89;87.25
26865;BME280;40618;51.166;10.322;2023-12-28T06:25:03;97171.22;;;5.87;86.91
26865;BME280;40618;51.166;10.322;2023-12-28T06:27:29;97187.50;;;5.86;87.01
26865;BME280;40618;51.166;10.322;2023-12-28T06:29:55;97184.13;;;5.82;86.87
26865;BME280;40618;51.166;10.322;2023-12-28T06:32:21;97175.59;;;5.80;87.42
26865;BME280;40618;51.166;10.322;2023-12-28T06:34:47;97170.50;;;5.79;87.00
26865;BME280;40618;51.166;10.322;2023-12-28T06:37:13;97176.50;;;5.78;87.42
26865;BME280;40618;51.166;10.322;2023-12-28T06:39:39;97179.09;;;5.76;87.22
26865;BME280;40618;51.166;10.322;2023-12-28T06:42:05;97185.97;;;5.74;87.28
26865;BME280;40618;51.166;10.322;2023-12-28T06:44:30;97191.09;;;5.74;87.31
26865;BME280;40618;51.166;10.322;2023-12-28T06:46:56;97188.53;;;5.74;87.52
26865;BME280;40618;51.166;10.322;2023-12-28T06:49:21;97185.13;;;5.73;87.30
26865;BME280;40618;51.166;10.322;2023-12-28T06:51:47;97178.28;;;5.72;87.51
26865;BME280;40618;51.166;10.322;2023-12-28T06:54:13;97169.75;;;5.72;87.18
26865;BME280;40618;51.166;10.322;2023-12-28T06:56:40;97168.91;;;5.70;87.24
26865;BME280;40618;51.166;10.322;2023-12-28T06:59:06;97174.03;;;5.70;87.54
26865;BME280;40618;51.166;10.322;2023-12-28T07:01:31;97179.22;;;5.68;87.67
26865;BME280;40618;51.166;10.322;2023-12-28T07:03:57;97172.41;;;5.67;87.48
26865;BME280;40618;51.166;10.322;2023-12-28T07:06:24;97160.44;;;5.65;87.39
26865;BME280;40618;51.166;10.322;2023-12-28T07:08:50;97162.16;;;5.63;87.87
26865;BME280;40618;51.166;10.322;2023-12-28T07:11:16;97167.34;;;5.61;87.80
26865;BME280;40618;51.166;10.322;2023-12-28T07:13:41;97175.91;;;5.60;87.34
26865;BME280;40618;51.166;10.322;2023-12-28T07:16:07;97175.91;;;5.60;87.71
26865;BME280;40618;51.166;10.322;2023-12-28T07:18:33;97185.34;;;5.59;87.49
26865;BME280;40618;51.166;10.322;2023-12-28T07:20:59;97186.19;;;5.60;87.62
26865;BME280;40618;51.166;10.322;2023-12-28T07:23:26;97182.78;;;5.59;88.16
26865;BME280;40618;51.166;10.322;2023-12-28T07:25:52;97194.75;;;5.59;87.59
26865;BME280;40618;51.166;10.322;2023-12-28T07:28:17;97188.78;;;5.57;87.42
26865;BME280;40618;51.166;10.322;2023-12-28T07:30:43;97184.47;;;5.59;88.13
26865;BME280;40618;51.166;10.322;2023-12-28T07:33:09;97187.91;;;5.59;88.33
26865;BME280;40618;51.166;10.322;2023-12-28T07:35:35;97188.75;;;5.60;88.08
26865;BME280;40618;51.166;10.322;2023-12-28T07:38:00;97183.63;;;5.58;88.02
26865;BME280;40618;51.166;10.322;2023-12-28T07:40:26;97186.22;;;5.58;88.17
26865;BME280;40618;51.166;10.322;2023-12-28T07:42:52;97199.03;;;5.60;88.33
26865;BME280;40618;51.166;10.322;2023-12-28T07:45:17;97197.31;;;5.59;88.11
26865;BME280;40618;51.166;10.322;2023-12-28T07:47:47;97196.44;;;5.60;88.67
26865;BME280;40618;51.166;10.322;2023-12-28T07:50:13;97207.59;;;5.61;88.34
26865;BME280;40618;51.166;10.322;2023-12-28T07:52:41;97205.88;;;5.59;88.50
26865;BME280;40618;51.166;10.322;2023-12-28T07:55:07;97216.16;;;5.59;88.19
26865;BME280;40618;51.166;10.322;2023-12-28T07:57:34;97205.03;;;5.61;88.05
26865;BME280;40618;51.166;10.322;2023-12-28T08:00:01;97211.00;;;5.61;88.46
26865;BME280;40618;51.166;10.322;2023-12-28T08:02:26;97213.56;;;5.61;88.61
26865;BME280;40618;51.166;10.322;2023-12-28T08:04:53;97218.69;;;5.63;88.21
26865;BME280;40618;51.166;10.322;2023-12-28T08:07:18;97207.53;;;5.64;88.27
26865;BME280;40618;51.166;10.322;2023-12-28T08:09:44;97205.81;;;5.64;88.58
26865;BME280;40618;51.166;10.322;2023-12-28T08:12:10;97208.38;;;5.64;88.25
26865;BME280;40618;51.166;10.322;2023-12-28T08:14:35;97199.00;;;5.63;88.67
26865;BME280;40618;51.166;10.322;2023-12-28T08:17:01;97211.81;;;5.65;88.33
26865;BME280;40618;51.166;10.322;2023-12-28T08:19:26;97210.13;;;5.64;88.18
26865;BME280;40618;51.166;10.322;2023-12-28T08:21:52;97202.38;;;5.65;88.89
26865;BME280;40618;51.166;10.322;2023-12-28T08:24:17;97189.53;;;5.65;88.78
26865;BME280;40618;51.166;10.322;2023-12-28T08:26:43;97214.34;;;5.66;88.86
26865;BME280;40618;51.166;10.322;2023-12-28T08:29:08;97208.34;;;5.67;88.91
26865;BME280;40618;51.166;10.322;2023-12-28T08:31:34;97215.16;;;5.70;88.92
26865;BME280;40618;51.166;10.322;2023-12-28T08:33:59;97222.00;;;5.69;89.06
26865;BME280;40618;51.166;10.322;2023-12-28T08:36:25;97204.88;;;5.71;89.16
26865;BME280;40618;51.166;10.322;2023-12-28T08:38:50;97223.66;;;5.73;89.07
26865;BME280;40618;51.166;10.322;2023-12-28T08:41:22;97222.81;;;5.74;88.76
26865;BME280;40618;51.166;10.322;2023-12-28T08:43:52;97207.38;;;5.74;88.60
26865;BME280;40618;51.166;10.322;2023-12-28T08:46:22;97218.47;;;5.76;88.96
26865;BME280;40618;51.166;10.322;2023-12-28T08:48:49;97210.75;;;5.76;89.35
26865;BME280;40618;51.166;10.322;2023-12-28T08:51:15;97196.16;;;5.80;89.04
26865;BME280;40618;51.166;10.322;2023-12-28T08:53:41;97197.88;;;5.81;88.59
26865;BME280;40618;51.166;10.322;2023-12-28T08:56:16;97197.88;;;5.81;88.79
26865;BME280;40618;51.166;10.322;2023-12-28T08:58:43;97208.13;;;5.83;88.76
26865;BME280;40618;51.166;10.322;2023-12-28T09:01:24;97208.13;;;5.83;88.99
26865;BME280;40618;51.166;10.322;2023-12-28T09:03:50;97208.06;;;5.86;89.22
26865;BME280;40618;51.166;10.322;2023-12-28T09:06:18;97197.78;;;5.86;89.60
26865;BME280;40618;51.166;10.322;2023-12-28T09:08:45;97208.06;;;5.86;89.84
26865;BME280;40618;51.166;10.322;2023-12-28T09:11:13;97198.66;;;5.85;89.40
26865;BME280;40618;51.166;10.322;2023-12-28T09:13:39;97215.78;;;5.86;89.22
26865;BME280;40618;51.166;10.322;2023-12-28T09:16:07;97227.75;;;5.87;89.30
26865;BME280;40618;51.166;10.322;2023-12-28T09:18:35;97223.44;;;5.89;89.30
26865;BME280;40618;51.166;10.322;2023-12-28T09:21:05;97216.56;;;5.91;88.99
26865;BME280;40618;51.166;10.322;2023-12-28T09:23:32;97220.84;;;5.92;89.50
26865;BME280;40618;51.166;10.322;2023-12-28T09:26:02;97229.34;;;5.94;89.45
26865;BME280;40618;51.166;10.322;2023-12-28T09:28:29;97237.09;;;5.92;89.15
26865;BME280;40618;51.166;10.322;2023-12-28T09:30:55;97245.63;;;5.93;89.36
26865;BME280;40618;51.166;10.322;2023-12-28T09:33:21;97241.34;;;5.95;89.27
26865;BME280;40618;51.166;10.322;2023-12-28T09:35:47;97218.19;;;5.98;89.43
26865;BME280;40618;51.166;10.322;2023-12-28T09:38:13;97225.03;;;5.99;88.87
26865;BME280;40618;51.166;10.322;2023-12-28T09:40:43;97223.28;;;6.01;89.39
26865;BME280;40618;51.166;10.322;2023-12-28T09:45:48;97227.50;;;6.05;89.51
26865;BME280;40618;51.166;10.322;2023-12-28T09:48:19;97242.91;;;6.07;89.05
26865;BME280;40618;51.166;10.322;2023-12-28T09:50:49;97248.03;;;6.08;89.12
26865;BME280;40618;51.166;10.322;2023-12-28T09:53:16;97253.13;;;6.12;89.09
26865;BME280;40618;51.166;10.322;2023-12-28T09:55:42;97265.06;;;6.16;89.08
26865;BME280;40618;51.166;10.322;2023-12-28T09:58:09;97252.13;;;6.20;89.49
26865;BME280;40618;51.166;10.322;2023-12-28T10:00:40;97260.63;;;6.24;89.60
26865;BME280;40618;51.166;10.322;2023-12-28T10:03:06;97250.31;;;6.25;89.05
26865;BME280;40618;51.166;10.322;2023-12-28T10:05:31;97271.69;;;6.31;89.55
26865;BME280;40618;51.166;10.322;2023-12-28T10:07:57;97254.47;;;6.33;89.51
26865;BME280;40618;51.166;10.322;2023-12-28T10:10:23;97261.31;;;6.35;89.36
26865;BME280;40618;51.166;10.322;2023-12-28T10:12:48;97265.53;;;6.39;89.22
26865;BME280;40618;51.166;10.322;2023-12-28T10:15:14;97269.75;;;6.43;89.24
26865;BME280;40618;51.166;10.322;2023-12-28T10:17:40;97268.81;;;6.48;88.87
26865;BME280;40618;51.166;10.322;2023-12-28T10:20:06;97273.91;;;6.52;88.96
26865;BME280;40618;51.166;10.322;2023-12-28T10:22:35;97259.28;;;6.54;89.24
26865;BME280;40618;51.166;10.322;2023-12-28T10:25:05;97260.94;;;6.57;88.69
26865;BME280;40618;51.166;10.322;2023-12-28T10:27:31;97252.38;;;6.58;88.54
26865;BME280;40618;51.166;10.322;2023-12-28T10:29:58;97258.31;;;6.60;88.41
26865;BME280;40618;51.166;10.322;2023-12-28T10:32:24;97250.53;;;6.65;89.31
26865;BME280;40618;51.166;10.322;2023-12-28T10:34:52;97248.78;;;6.67;88.96
26865;BME280;40618;51.166;10.322;2023-12-28T10:37:20;97241.00;;;6.70;89.02
26865;BME280;40618;51.166;10.322;2023-12-28T10:39:48;97242.72;;;6.69;88.69
26865;BME280;40618;51.166;10.322;2023-12-28T10:42:28;97247.81;;;6.74;88.48
26865;BME280;40618;51.166;10.322;2023-12-28T10:45:04;97234.94;;;6.74;89.08
26865;BME280;40618;51.166;10.322;2023-12-28T10:47:37;97238.34;;;6.74;88.78
26865;BME280;40618;51.166;10.322;2023-12-28T10:50:06;97238.31;;;6.76;89.00
26865;BME280;40618;51.166;10.322;2023-12-28T10:52:34;97240.00;;;6.78;88.82
26865;BME280;40618;51.166;10.322;2023-12-28T10:55:26;97243.34;;;6.84;88.99
26865;BME280;40618;51.166;10.322;2023-12-28T10:58:06;97232.97;;;6.87;88.90
26865;BME280;40618;51.166;10.322;2023-12-28T11:00:58;97243.19;;;6.90;88.25
26865;BME280;40618;51.166;10.322;2023-12-28T11:03:30;97247.47;;;6.91;88.98
26865;BME280;40618;51.166;10.322;2023-12-28T11:06:02;97237.19;;;6.91;88.10
26865;BME280;40618;51.166;10.322;2023-12-28T11:08:29;97232.88;;;6.93;89.04
26865;BME280;40618;51.166;10.322;2023-12-28T11:10:59;97239.63;;;6.99;88.67
26865;BME280;40618;51.166;10.322;2023-12-28T11:13:29;97233.56;;;7.00;87.90
26865;BME280;40618;51.166;10.322;2023-12-28T11:15:57;97251.56;;;7.03;88.10
26865;BME280;40618;51.166;10.322;2023-12-28T11:18:25;97250.66;;;7.05;88.35
26865;BME280;40618;51.166;10.322;2023-12-28T11:20:53;97230.06;;;7.05;88.38
26865;BME280;40618;51.166;10.322;2023-12-28T11:23:19;97229.19;;;7.05;88.31
26865;BME280;40618;51.166;10.322;2023-12-28T11:25:45;97225.81;;;7.03;87.71
26865;BME280;40618;51.166;10.322;2023-12-28T11:28:12;97230.91;;;7.06;87.75
26865;BME280;40618;51.166;10.322;2023-12-28T11:30:41;97231.72;;;7.06;88.60
26865;BME280;40618;51.166;10.322;2023-12-28T11:33:10;97228.31;;;7.06;88.23
26865;BME280;40618;51.166;10.322;2023-12-28T11:35:36;97224.88;;;7.07;87.59
26865;BME280;40618;51.166;10.322;2023-12-28T11:38:11;97223.13;;;7.07;88.41
26865;BME280;40618;51.166;10.322;2023-12-28T11:40:47;97223.16;;;7.06;88.28
26865;BME280;40618;51.166;10.322;2023-12-28T11:43:20;97215.44;;;7.06;88.33
26865;BME280;40618;51.166;10.322;2023-12-28T11:45:51;97218.00;;;7.07;88.20
26865;BME280;40618;51.166;10.322;2023-12-28T11:48:26;97212.84;;;7.07;88.01
26865;BME280;40618;51.166;10.322;2023-12-28T11:50:58;97209.34;;;7.10;88.53
26865;BME280;40618;51.166;10.322;2023-12-28T11:53:25;97217.09;;;7.10;87.52
26865;BME280;40618;51.166;10.322;2023-12-28T11:55:51;97211.91;;;7.11;87.70
26865;BME280;40618;51.166;10.322;2023-12-28T11:58:18;97217.88;;;7.14;87.43
26865;BME280;40618;51.166;10.322;2023-12-28T12:00:44;97194.63;;;7.17;88.17
26865;BME280;40618;51.166;10.322;2023-12-28T12:03:13;97200.63;;;7.17;87.41
26865;BME280;40618;51.166;10.322;2023-12-28T12:05:39;97195.44;;;7.19;87.60
26865;BME280;40618;51.166;10.322;2023-12-28T12:08:06;97180.84;;;7.19;87.75
26865;BME280;40618;51.166;10.322;2023-12-28T12:10:34;97185.97;;;7.21;87.43
26865;BME280;40618;51.166;10.322;2023-12-28T12:13:00;97195.41;;;7.20;87.52
26865;BME280;40618;51.166;10.322;2023-12-28T12:15:28;97185.97;;;7.21;87.93
26865;BME280;40618;51.166;10.322;2023-12-28T12:17:55;97170.50;;;7.21;87.09
26865;BME280;40618;51.166;10.322;2023-12-28T12:20:20;97165.41;;;7.19;87.28
26865;BME280;40618;51.166;10.322;2023-12-28T12:22:46;97160.25;;;7.19;87.66
26865;BME280;40618;51.166;10.322;2023-12-28T12:25:14;97157.69;;;7.19;87.31
26865;BME280;40618;51.166;10.322;2023-12-28T12:27:40;97164.53;;;7.19;87.32
26865;BME280;40618;51.166;10.322;2023-12-28T12:30:07;97146.50;;;7.19;87.41
26865;BME280;40618;51.166;10.322;2023-12-28T12:32:34;97155.09;;;7.19;86.82
26865;BME280;40618;51.166;10.322;2023-12-28T12:35:04;97156.78;;;7.20;87.08
26865;BME280;40618;51.166;10.322;2023-12-28T12:37:31;97137.91;;;7.20;87.43
26865;BME280;40618;51.166;10.322;2023-12-28T12:39:56;97144.75;;;7.21;87.10
26865;BME280;40618;51.166;10.322;2023-12-28T12:42:22;97141.31;;;7.22;87.06
26865;BME280;40618;51.166;10.322;2023-12-28T12:44:48;97138.69;;;7.23;87.49
26865;BME280;40618;51.166;10.322;2023-12-28T12:47:13;97146.38;;;7.25;87.09
26865;BME280;40618;51.166;10.322;2023-12-28T12:49:39;97141.19;;;7.26;87.11
26865;BME280;40618;51.166;10.322;2023-12-28T12:52:07;97148.03;;;7.29;86.78
26865;BME280;40618;51.166;10.322;2023-12-28T12:54:32;97149.72;;;7.30;87.00
26865;BME280;40618;51.166;10.322;2023-12-28T12:56:58;97147.16;;;7.30;87.29
26865;BME280;40618;51.166;10.322;2023-12-28T12:59:24;97135.13;;;7.29;86.40
26865;BME280;40618;51.166;10.322;2023-12-28T13:01:51;97138.56;;;7.29;87.14